createdAt,value
2022-09-23T00:00:43.873Z,2.28
2022-09-23T00:04:46.733Z,2.10
2022-09-23T00:08:52.114Z,1.90
2022-09-23T00:12:54.957Z,1.50
2022-09-23T00:16:56.794Z,1.80
2022-09-23T00:21:02.124Z,1.90
2022-09-23T00:25:09.242Z,2.07
2022-09-23T00:29:10.846Z,1.60
2022-09-23T00:33:12.447Z,1.98
2022-09-23T00:37:14.778Z,1.65
2022-09-23T00:41:17.067Z,1.80
2022-09-23T00:45:19.430Z,1.58
2022-09-23T00:49:28.653Z,1.88
2022-09-23T00:53:30.341Z,1.63
2022-09-23T00:57:32.051Z,1.70
2022-09-23T01:01:33.683Z,1.50
2022-09-23T01:05:36.641Z,1.98
2022-09-23T01:09:38.254Z,1.50
2022-09-23T01:14:04.017Z,1.63
2022-09-23T01:18:32.622Z,1.57
2022-09-23T01:22:38.310Z,1.70
2022-09-23T01:27:07.106Z,1.50
2022-09-23T01:31:17.438Z,1.30
2022-09-23T01:35:43.549Z,1.35
2022-09-23T01:40:01.706Z,1.38
2022-09-23T01:44:09.955Z,1.50
2022-09-23T01:48:27.851Z,1.45
2022-09-23T01:52:40.299Z,1.50
2022-09-23T01:57:08.018Z,1.02
2022-09-23T02:01:16.367Z,1.30
2022-09-23T02:05:27.931Z,1.55
2022-09-23T02:09:39.757Z,1.30
2022-09-23T02:13:51.419Z,1.30
2022-09-23T02:18:03.850Z,1.20
2022-09-23T02:22:12.322Z,1.50
2022-09-23T02:26:59.738Z,1.20
2022-09-23T02:31:33.221Z,1.20
2022-09-23T02:35:58.032Z,1.15
2022-09-23T02:40:25.828Z,1.25
2022-09-23T02:44:28.365Z,1.23
2022-09-23T02:48:35.772Z,1.40
2022-09-23T02:52:38.685Z,1.25
2022-09-23T02:56:40.299Z,1.13
2022-09-23T03:00:58.089Z,0.90
2022-09-23T03:05:23.765Z,1.27
2022-09-23T03:09:28.018Z,1.45
2022-09-23T03:13:46.990Z,1.25
2022-09-23T03:18:08.502Z,1.35
2022-09-23T03:22:28.178Z,1.10
2022-09-23T03:26:35.725Z,1.00
2022-09-23T03:30:39.192Z,1.30
2022-09-23T03:34:43.039Z,1.13
2022-09-23T03:38:50.949Z,1.40
2022-09-23T03:42:56.050Z,1.13
2022-09-23T03:47:02.260Z,1.13
2022-09-23T03:51:19.563Z,1.10
2022-09-23T03:55:21.979Z,0.90
2022-09-23T03:59:24.771Z,1.27
2022-09-23T04:03:28.011Z,1.08
2022-09-23T04:07:29.614Z,1.10
2022-09-23T04:15:50.195Z,1.30
2022-09-23T04:19:51.732Z,1.00
2022-09-23T04:23:53.291Z,0.90
2022-09-23T04:27:54.848Z,1.25
2022-09-23T04:31:57.607Z,1.20
2022-09-23T04:35:59.837Z,0.90
2022-09-23T04:40:02.109Z,1.00
2022-09-23T04:44:04.920Z,1.08
2022-09-23T04:52:17.975Z,1.10
2022-09-23T04:56:26.267Z,1.05
2022-09-23T05:00:28.728Z,0.80
2022-09-23T05:04:31.341Z,0.98
2022-09-23T05:08:33.544Z,1.05
2022-09-23T05:12:35.088Z,0.90
2022-09-23T05:16:36.799Z,1.17
2022-09-23T05:20:51.105Z,1.00
2022-09-23T05:24:55.494Z,1.23
2022-09-23T05:28:58.352Z,1.10
2022-09-23T05:33:00.157Z,1.13
2022-09-23T05:37:01.750Z,1.58
2022-09-23T05:41:06.966Z,1.40
2022-09-23T05:45:08.919Z,1.90
2022-09-23T05:49:10.626Z,1.60
2022-09-23T05:53:12.169Z,1.42
2022-09-23T05:57:13.817Z,1.30
2022-09-23T06:01:27.058Z,1.40
2022-09-23T06:05:28.660Z,1.63
2022-09-23T06:09:35.520Z,1.45
2022-09-23T06:13:39.352Z,1.45
2022-09-23T06:17:40.897Z,1.63
2022-09-23T06:21:42.554Z,1.20
2022-09-23T06:25:44.114Z,1.88
2022-09-23T06:29:45.669Z,1.67
2022-09-23T06:33:49.616Z,1.85
2022-09-23T06:37:52.210Z,2.20
2022-09-23T06:41:54.435Z,1.70
2022-09-23T06:46:09.493Z,1.52
2022-09-23T06:50:14.702Z,1.75
2022-09-23T06:54:16.419Z,1.43
2022-09-23T06:58:17.962Z,1.30
2022-09-23T07:02:19.558Z,1.52
2022-09-23T07:06:21.391Z,1.73
2022-09-23T07:10:22.977Z,1.50
2022-09-23T07:14:24.629Z,1.75
2022-09-23T07:18:27.310Z,1.45
2022-09-23T07:22:29.411Z,1.55
2022-09-23T07:26:34.102Z,1.20
2022-09-23T07:30:47.248Z,1.50
2022-09-23T07:34:53.779Z,1.55
2022-09-23T07:39:00.492Z,1.85
2022-09-23T07:43:04.425Z,1.67
2022-09-23T07:47:06.213Z,1.88
2022-09-23T07:51:20.218Z,1.45
2022-09-23T07:55:22.329Z,1.52
2022-09-23T07:59:24.392Z,1.55
2022-09-23T08:03:25.930Z,1.50
2022-09-23T08:07:27.496Z,1.80
2022-09-23T08:11:29.129Z,1.40
2022-09-23T08:15:31.177Z,2.28
2022-09-23T08:19:32.799Z,1.80
2022-09-23T08:23:34.460Z,1.73
2022-09-23T08:27:35.997Z,1.60
2022-09-23T08:31:37.541Z,1.70
2022-09-23T08:35:39.813Z,1.60
2022-09-23T08:39:41.437Z,1.38
2022-09-23T08:43:49.823Z,1.50
2022-09-23T08:48:13.357Z,1.27
2022-09-23T08:52:22.863Z,1.50
2022-09-23T08:56:24.560Z,1.55
2022-09-23T09:00:34.862Z,1.38
2022-09-23T09:04:36.369Z,1.45
2022-09-23T09:08:38.875Z,1.38
2022-09-23T09:12:47.780Z,1.42
2022-09-23T09:17:07.851Z,1.10
2022-09-23T09:21:13.972Z,1.27
2022-09-23T09:25:32.134Z,1.45
2022-09-23T09:29:41.004Z,1.17
2022-09-23T09:33:57.853Z,1.30
2022-09-23T09:37:59.424Z,1.33
2022-09-23T09:42:01.812Z,1.33
2022-09-23T09:46:34.002Z,1.15
2022-09-23T09:50:43.598Z,1.58
2022-09-23T09:54:45.132Z,1.65
2022-09-23T09:58:55.539Z,1.20
2022-09-23T10:03:08.392Z,1.30
2022-09-23T10:07:15.417Z,1.48
2022-09-23T10:11:18.672Z,1.48
2022-09-23T10:15:33.928Z,1.42
2022-09-23T10:19:37.047Z,1.25
2022-09-23T10:23:42.611Z,1.20
2022-09-23T10:27:45.472Z,1.10
2022-09-23T10:31:47.084Z,1.08
2022-09-23T10:35:57.014Z,1.40
2022-09-23T10:40:18.788Z,1.30
2022-09-23T10:44:55.473Z,0.95
2022-09-23T10:49:27.321Z,1.35
2022-09-23T10:53:52.933Z,1.48
2022-09-23T10:58:23.962Z,1.27
2022-09-23T11:02:25.449Z,1.20
2022-09-23T11:07:01.585Z,1.00
2022-09-23T11:11:34.831Z,0.90
2022-09-23T11:15:54.663Z,1.10
2022-09-23T11:20:14.919Z,1.33
2022-09-23T11:24:33.941Z,1.30
2022-09-23T11:28:50.549Z,1.25
2022-09-23T11:33:13.378Z,1.52
2022-09-23T11:37:20.450Z,1.38
2022-09-23T11:41:36.550Z,1.38
2022-09-23T11:46:02.928Z,1.38
2022-09-23T11:50:23.417Z,1.20
2022-09-23T11:54:32.734Z,1.60
2022-09-23T11:58:42.792Z,1.42
2022-09-23T12:03:18.313Z,1.55
2022-09-23T12:07:28.385Z,1.50
2022-09-23T12:11:41.722Z,1.48
2022-09-23T12:15:51.017Z,1.73
2022-09-23T12:20:18.445Z,1.77
2022-09-23T12:24:43.548Z,1.33
2022-09-23T12:28:49.131Z,1.50
2022-09-23T12:32:51.104Z,1.73
2022-09-23T12:36:52.837Z,1.60
2022-09-23T12:40:55.874Z,2.13
2022-09-23T12:45:16.937Z,1.73
2022-09-23T12:49:29.387Z,1.83
2022-09-23T12:53:33.689Z,1.88
2022-09-23T12:57:35.281Z,2.20
2022-09-23T13:01:38.051Z,1.88
2022-09-23T13:06:45.285Z,2.47
2022-09-23T13:10:55.170Z,2.15
2022-09-23T13:15:03.152Z,2.15
2022-09-23T13:19:06.762Z,2.10
2022-09-23T13:23:23.478Z,2.40
2022-09-23T13:27:32.750Z,2.28
2022-09-23T13:31:34.639Z,1.70
2022-09-23T13:35:39.537Z,2.22
2022-09-23T13:39:41.112Z,2.50
2022-09-23T13:43:49.906Z,1.90
2022-09-23T13:47:53.657Z,2.58
2022-09-23T13:51:57.055Z,2.28
2022-09-23T13:56:07.629Z,2.38
2022-09-23T14:00:19.459Z,1.90
2022-09-23T14:04:25.271Z,2.03
2022-09-23T14:08:28.637Z,2.47
2022-09-23T14:12:30.260Z,1.98
2022-09-23T14:16:31.904Z,1.70
2022-09-23T14:20:45.780Z,1.92
2022-09-23T14:24:48.433Z,2.20
2022-09-23T14:28:50.707Z,2.47
2022-09-23T14:32:53.617Z,1.98
2022-09-23T14:37:13.833Z,1.58
2022-09-23T14:41:27.629Z,1.63
2022-09-23T14:45:34.530Z,1.65
2022-09-23T14:49:36.195Z,2.03
2022-09-23T14:53:40.517Z,1.75
2022-09-23T14:57:42.882Z,1.30
2022-09-23T15:01:44.441Z,2.20
2022-09-23T15:05:47.761Z,2.13
2022-09-23T15:09:49.320Z,1.90
2022-09-23T15:13:52.906Z,2.00
2022-09-23T15:17:54.534Z,1.70
2022-09-23T15:21:56.166Z,2.10
2022-09-23T15:25:57.744Z,2.05
2022-09-23T15:30:19.547Z,2.08
2022-09-23T15:34:21.626Z,2.20
2022-09-23T15:38:24.330Z,1.70
2022-09-23T15:42:25.974Z,1.80
2022-09-23T15:46:29.061Z,2.10
2022-09-23T15:50:31.246Z,1.90
2022-09-23T15:54:33.739Z,1.75
2022-09-23T15:58:35.674Z,2.13
2022-09-23T16:02:37.308Z,2.08
2022-09-23T16:06:39.585Z,1.65
2022-09-23T16:10:42.260Z,1.80
2022-09-23T16:14:43.910Z,1.80
2022-09-23T16:18:45.439Z,1.60
2022-09-23T16:22:59.751Z,1.48
2022-09-23T16:27:05.147Z,1.77
2022-09-23T16:31:06.803Z,2.00
2022-09-23T16:35:08.996Z,1.63
2022-09-23T16:39:13.278Z,2.05
2022-09-23T16:43:14.855Z,2.03
2022-09-23T16:47:16.396Z,2.00
2022-09-23T16:51:20.724Z,1.88
2022-09-23T16:55:24.656Z,2.10
2022-09-23T16:59:46.171Z,1.60
2022-09-23T17:03:47.852Z,2.05
2022-09-23T17:07:49.419Z,1.83
2022-09-23T17:12:03.836Z,1.88
2022-09-23T17:16:05.683Z,2.15
2022-09-23T17:20:07.686Z,1.83
2022-09-23T17:24:09.959Z,2.00
2022-09-23T17:28:11.496Z,1.40
2022-09-23T17:32:13.076Z,1.40
2022-09-23T17:36:15.550Z,1.88
2022-09-23T17:40:17.924Z,1.50
2022-09-23T17:44:19.526Z,1.70
2022-09-23T17:48:22.508Z,1.40
2022-09-23T17:52:24.144Z,1.70
2022-09-23T17:56:26.483Z,1.63
2022-09-23T18:00:28.110Z,2.22
2022-09-23T18:04:29.787Z,1.70
2022-09-23T18:08:31.367Z,1.67
2022-09-23T18:12:32.953Z,1.20
2022-09-23T18:16:37.547Z,1.30
2022-09-23T18:20:39.129Z,1.45
2022-09-23T18:24:42.243Z,1.48
2022-09-23T18:28:44.189Z,1.40
2022-09-23T18:32:45.741Z,1.50
2022-09-23T18:36:47.503Z,1.45
2022-09-23T18:40:58.095Z,1.77
2022-09-23T18:44:59.675Z,1.17
2022-09-23T18:49:19.801Z,1.50
2022-09-23T18:53:21.346Z,1.60
2022-09-23T18:57:22.899Z,1.25
2022-09-23T19:01:25.341Z,1.40
2022-09-23T19:05:26.975Z,1.15
2022-09-23T19:09:28.566Z,1.08
2022-09-23T19:13:34.174Z,1.50
2022-09-23T19:17:35.773Z,1.08
2022-09-23T19:21:37.381Z,1.20
2022-09-23T19:25:38.907Z,1.25
2022-09-23T19:29:40.449Z,1.30
2022-09-23T19:33:50.999Z,1.48
2022-09-23T19:37:52.563Z,1.13
2022-09-23T19:41:55.845Z,1.30
2022-09-23T19:45:57.482Z,1.40
2022-09-23T19:49:59.411Z,1.25
2022-09-23T19:54:01.719Z,1.48
2022-09-23T19:58:04.626Z,1.38
2022-09-23T20:02:08.582Z,1.20
2022-09-23T20:06:10.466Z,1.02
2022-09-23T20:10:12.807Z,1.20
2022-09-23T20:14:14.406Z,1.00
2022-09-23T20:18:15.987Z,1.13
2022-09-23T20:22:32.404Z,1.35
2022-09-23T20:26:54.261Z,1.23
2022-09-23T20:30:58.555Z,1.15
2022-09-23T20:35:00.836Z,1.55
2022-09-23T20:39:05.706Z,1.20
2022-09-23T20:43:07.343Z,1.00
2022-09-23T20:47:13.017Z,1.02
2022-09-23T20:51:15.109Z,0.80
2022-09-23T20:55:18.058Z,1.20
2022-09-23T20:59:19.739Z,0.98
2022-09-23T21:03:21.310Z,1.00
2022-09-23T21:07:23.710Z,1.00
2022-09-23T21:11:26.270Z,0.80
2022-09-23T21:15:27.925Z,0.95
2022-09-23T21:19:30.280Z,1.20
2022-09-23T21:23:34.948Z,1.00
2022-09-23T21:27:37.108Z,1.25
2022-09-23T21:31:38.795Z,0.70
2022-09-23T21:35:40.679Z,0.90
2022-09-23T21:40:02.191Z,0.88
2022-09-23T21:44:04.869Z,0.98
2022-09-23T21:48:06.720Z,1.00
2022-09-23T21:52:08.248Z,0.80
2022-09-23T21:56:16.803Z,1.00
2022-09-23T22:00:21.533Z,0.90
2022-09-23T22:04:23.116Z,1.00
2022-09-23T22:08:27.680Z,1.20
2022-09-23T22:12:29.209Z,1.20
2022-09-23T22:16:32.182Z,1.02
2022-09-23T22:20:34.135Z,1.30
2022-09-23T22:24:35.685Z,1.10
2022-09-23T22:28:55.953Z,0.93
2022-09-23T22:33:00.063Z,0.85
2022-09-23T22:37:01.929Z,1.20
2022-09-23T22:41:03.596Z,1.20
2022-09-23T22:45:05.891Z,0.90
2022-09-23T22:49:09.024Z,1.05
2022-09-23T22:53:10.948Z,1.27
2022-09-23T22:57:12.674Z,1.15
2022-09-23T23:01:14.396Z,1.00
2022-09-23T23:05:16.030Z,0.90
2022-09-23T23:09:18.806Z,0.80
2022-09-23T23:13:21.609Z,0.90
2022-09-23T23:17:23.149Z,0.90
2022-09-23T23:21:24.754Z,1.05
2022-09-23T23:25:26.289Z,0.90
2022-09-23T23:29:27.846Z,0.80
2022-09-23T23:33:29.397Z,0.85
2022-09-23T23:37:30.971Z,0.90
2022-09-23T23:41:32.594Z,0.90
2022-09-23T23:45:34.142Z,0.82
2022-09-23T23:49:35.672Z,1.00
2022-09-23T23:53:39.103Z,1.00
2022-09-23T23:57:40.626Z,0.90
